sensor_id;sensor_type;location;lat;lon;timestamp;P1;durP1;ratioP1;P2;durP2;ratioP2
5937;SDS011;2994;51.220;4.412;2023-07-24T00:01:41;1.67;;;1.57;;
5937;SDS011;2994;51.220;4.412;2023-07-24T00:04:07;2.83;;;1.70;;
5937;SDS011;2994;51.220;4.412;2023-07-24T00:06:32;1.73;;;1.57;;
5937;SDS011;2994;51.220;4.412;2023-07-24T00:08:57;3.23;;;1.77;;
5937;SDS011;2994;51.220;4.412;2023-07-24T00:11:23;1.70;;;1.53;;
5937;SDS011;2994;51.220;4.412;2023-07-24T00:13:49;1.90;;;1.73;;
5937;SDS011;2994;51.220;4.412;2023-07-24T00:16:14;1.77;;;1.40;;
5937;SDS011;2994;51.220;4.412;2023-07-24T00:18:40;1.50;;;1.40;;
5937;SDS011;2994;51.220;4.412;2023-07-24T00:21:06;1.67;;;1.37;;
5937;SDS011;2994;51.220;4.412;2023-07-24T00:23:31;2.00;;;1.70;;
5937;SDS011;2994;51.220;4.412;2023-07-24T00:25:57;2.60;;;1.90;;
5937;SDS011;2994;51.220;4.412;2023-07-24T00:28:22;2.30;;;1.70;;
5937;SDS011;2994;51.220;4.412;2023-07-24T00:30:47;2.17;;;1.73;;
5937;SDS011;2994;51.220;4.412;2023-07-24T00:33:13;2.00;;;1.50;;
5937;SDS011;2994;51.220;4.412;2023-07-24T00:35:38;2.83;;;1.97;;
5937;SDS011;2994;51.220;4.412;2023-07-24T00:38:04;3.07;;;1.40;;
5937;SDS011;2994;51.220;4.412;2023-07-24T00:40:29;1.80;;;1.70;;
5937;SDS011;2994;51.220;4.412;2023-07-24T00:42:54;1.90;;;1.70;;
5937;SDS011;2994;51.220;4.412;2023-07-24T00:45:21;2.20;;;1.93;;
5937;SDS011;2994;51.220;4.412;2023-07-24T00:47:47;2.20;;;1.93;;
5937;SDS011;2994;51.220;4.412;2023-07-24T00:50:12;1.80;;;1.53;;
5937;SDS011;2994;51.220;4.412;2023-07-24T00:52:38;1.93;;;1.37;;
5937;SDS011;2994;51.220;4.412;2023-07-24T00:55:05;1.80;;;1.67;;
5937;SDS011;2994;51.220;4.412;2023-07-24T00:57:31;2.17;;;1.97;;
5937;SDS011;2994;51.220;4.412;2023-07-24T00:59:57;2.10;;;1.70;;
5937;SDS011;2994;51.220;4.412;2023-07-24T01:02:23;2.63;;;1.83;;
5937;SDS011;2994;51.220;4.412;2023-07-24T01:04:48;2.43;;;1.57;;
5937;SDS011;2994;51.220;4.412;2023-07-24T01:07:14;2.10;;;1.80;;
5937;SDS011;2994;51.220;4.412;2023-07-24T01:09:41;3.27;;;1.73;;
5937;SDS011;2994;51.220;4.412;2023-07-24T01:12:10;3.57;;;2.27;;
5937;SDS011;2994;51.220;4.412;2023-07-24T01:14:49;1.90;;;1.47;;
5937;SDS011;2994;51.220;4.412;2023-07-24T01:17:23;2.70;;;1.40;;
5937;SDS011;2994;51.220;4.412;2023-07-24T01:19:52;1.77;;;1.67;;
5937;SDS011;2994;51.220;4.412;2023-07-24T01:27:40;1.57;;;1.27;;
5937;SDS011;2994;51.220;4.412;2023-07-24T01:30:10;2.20;;;1.70;;
5937;SDS011;2994;51.220;4.412;2023-07-24T01:32:36;2.60;;;1.50;;
5937;SDS011;2994;51.220;4.412;2023-07-24T01:35:02;2.03;;;1.77;;
5937;SDS011;2994;51.220;4.412;2023-07-24T01:37:29;2.20;;;1.83;;
5937;SDS011;2994;51.220;4.412;2023-07-24T01:39:55;2.60;;;1.70;;
5937;SDS011;2994;51.220;4.412;2023-07-24T01:42:22;2.50;;;1.57;;
5937;SDS011;2994;51.220;4.412;2023-07-24T01:44:54;3.00;;;1.90;;
5937;SDS011;2994;51.220;4.412;2023-07-24T01:47:20;3.77;;;2.17;;
5937;SDS011;2994;51.220;4.412;2023-07-24T01:49:46;3.17;;;2.10;;
5937;SDS011;2994;51.220;4.412;2023-07-24T01:52:12;2.60;;;1.77;;
5937;SDS011;2994;51.220;4.412;2023-07-24T01:54:37;2.57;;;2.20;;
5937;SDS011;2994;51.220;4.412;2023-07-24T01:57:03;2.60;;;1.73;;
5937;SDS011;2994;51.220;4.412;2023-07-24T01:59:29;2.53;;;1.70;;
5937;SDS011;2994;51.220;4.412;2023-07-24T02:01:54;3.20;;;2.10;;
5937;SDS011;2994;51.220;4.412;2023-07-24T02:04:20;2.80;;;2.20;;
5937;SDS011;2994;51.220;4.412;2023-07-24T02:06:47;4.37;;;3.07;;
5937;SDS011;2994;51.220;4.412;2023-07-24T02:09:13;3.53;;;2.33;;
5937;SDS011;2994;51.220;4.412;2023-07-24T02:11:39;2.50;;;1.70;;
5937;SDS011;2994;51.220;4.412;2023-07-24T02:14:05;2.37;;;2.17;;
5937;SDS011;2994;51.220;4.412;2023-07-24T02:16:30;2.33;;;2.00;;
5937;SDS011;2994;51.220;4.412;2023-07-24T02:18:56;2.13;;;1.60;;
5937;SDS011;2994;51.220;4.412;2023-07-24T02:21:21;2.60;;;2.10;;
5937;SDS011;2994;51.220;4.412;2023-07-24T02:23:47;2.93;;;1.90;;
5937;SDS011;2994;51.220;4.412;2023-07-24T02:26:12;3.20;;;2.20;;
5937;SDS011;2994;51.220;4.412;2023-07-24T02:28:37;2.13;;;1.80;;
5937;SDS011;2994;51.220;4.412;2023-07-24T02:31:03;5.60;;;2.07;;
5937;SDS011;2994;51.220;4.412;2023-07-24T02:33:28;2.27;;;2.07;;
5937;SDS011;2994;51.220;4.412;2023-07-24T02:35:53;2.03;;;1.83;;
5937;SDS011;2994;51.220;4.412;2023-07-24T02:38:19;2.50;;;1.97;;
5937;SDS011;2994;51.220;4.412;2023-07-24T02:40:44;3.27;;;2.37;;
5937;SDS011;2994;51.220;4.412;2023-07-24T02:43:10;2.50;;;2.07;;
5937;SDS011;2994;51.220;4.412;2023-07-24T02:45:36;2.50;;;1.70;;
5937;SDS011;2994;51.220;4.412;2023-07-24T02:48:02;1.73;;;1.60;;
5937;SDS011;2994;51.220;4.412;2023-07-24T02:50:28;1.93;;;1.73;;
5937;SDS011;2994;51.220;4.412;2023-07-24T02:52:53;2.80;;;1.70;;
5937;SDS011;2994;51.220;4.412;2023-07-24T02:55:19;3.10;;;2.30;;
5937;SDS011;2994;51.220;4.412;2023-07-24T02:57:44;1.67;;;1.57;;
5937;SDS011;2994;51.220;4.412;2023-07-24T03:00:10;4.33;;;2.27;;
5937;SDS011;2994;51.220;4.412;2023-07-24T03:02:36;2.80;;;2.20;;
5937;SDS011;2994;51.220;4.412;2023-07-24T03:05:01;2.43;;;2.13;;
5937;SDS011;2994;51.220;4.412;2023-07-24T03:07:27;2.60;;;2.20;;
5937;SDS011;2994;51.220;4.412;2023-07-24T03:09:53;2.27;;;1.93;;
5937;SDS011;2994;51.220;4.412;2023-07-24T03:12:18;2.30;;;1.80;;
5937;SDS011;2994;51.220;4.412;2023-07-24T03:14:44;2.60;;;2.00;;
5937;SDS011;2994;51.220;4.412;2023-07-24T03:17:09;3.33;;;3.03;;
5937;SDS011;2994;51.220;4.412;2023-07-24T03:19:34;3.10;;;2.10;;
5937;SDS011;2994;51.220;4.412;2023-07-24T03:22:00;2.20;;;1.90;;
5937;SDS011;2994;51.220;4.412;2023-07-24T03:24:25;3.43;;;2.77;;
5937;SDS011;2994;51.220;4.412;2023-07-24T03:26:51;4.50;;;2.77;;
5937;SDS011;2994;51.220;4.412;2023-07-24T03:29:16;3.80;;;2.73;;
5937;SDS011;2994;51.220;4.412;2023-07-24T03:31:41;2.70;;;2.30;;
5937;SDS011;2994;51.220;4.412;2023-07-24T03:34:07;5.67;;;2.67;;
5937;SDS011;2994;51.220;4.412;2023-07-24T03:36:32;3.40;;;3.03;;
5937;SDS011;2994;51.220;4.412;2023-07-24T03:38:58;3.30;;;3.00;;
5937;SDS011;2994;51.220;4.412;2023-07-24T03:41:24;5.23;;;3.77;;
5937;SDS011;2994;51.220;4.412;2023-07-24T03:43:50;4.93;;;3.43;;
5937;SDS011;2994;51.220;4.412;2023-07-24T03:46:15;5.43;;;3.80;;
5937;SDS011;2994;51.220;4.412;2023-07-24T03:48:40;3.50;;;3.10;;
5937;SDS011;2994;51.220;4.412;2023-07-24T03:51:06;3.90;;;3.47;;
5937;SDS011;2994;51.220;4.412;2023-07-24T03:53:32;3.27;;;2.97;;
5937;SDS011;2994;51.220;4.412;2023-07-24T03:55:57;3.20;;;2.87;;
5937;SDS011;2994;51.220;4.412;2023-07-24T03:58:23;3.27;;;2.77;;
5937;SDS011;2994;51.220;4.412;2023-07-24T04:00:48;2.67;;;2.40;;
5937;SDS011;2994;51.220;4.412;2023-07-24T04:03:14;3.27;;;2.60;;
5937;SDS011;2994;51.220;4.412;2023-07-24T04:05:39;3.73;;;2.70;;
5937;SDS011;2994;51.220;4.412;2023-07-24T04:08:04;2.80;;;2.57;;
5937;SDS011;2994;51.220;4.412;2023-07-24T04:10:30;4.50;;;2.60;;
5937;SDS011;2994;51.220;4.412;2023-07-24T04:12:56;2.93;;;2.33;;
5937;SDS011;2994;51.220;4.412;2023-07-24T04:15:22;2.73;;;2.53;;
5937;SDS011;2994;51.220;4.412;2023-07-24T04:17:47;4.13;;;2.80;;
5937;SDS011;2994;51.220;4.412;2023-07-24T04:20:13;2.90;;;2.47;;
5937;SDS011;2994;51.220;4.412;2023-07-24T04:22:38;3.40;;;2.93;;
5937;SDS011;2994;51.220;4.412;2023-07-24T04:25:04;3.33;;;2.60;;
5937;SDS011;2994;51.220;4.412;2023-07-24T04:27:30;3.80;;;2.40;;
5937;SDS011;2994;51.220;4.412;2023-07-24T04:29:55;3.03;;;2.00;;
5937;SDS011;2994;51.220;4.412;2023-07-24T04:32:21;3.53;;;3.03;;
5937;SDS011;2994;51.220;4.412;2023-07-24T04:34:46;4.20;;;2.70;;
5937;SDS011;2994;51.220;4.412;2023-07-24T04:37:12;2.67;;;2.47;;
5937;SDS011;2994;51.220;4.412;2023-07-24T04:39:40;4.53;;;2.80;;
5937;SDS011;2994;51.220;4.412;2023-07-24T04:42:05;3.30;;;2.53;;
5937;SDS011;2994;51.220;4.412;2023-07-24T04:44:31;3.13;;;2.80;;
5937;SDS011;2994;51.220;4.412;2023-07-24T04:46:57;2.80;;;2.60;;
5937;SDS011;2994;51.220;4.412;2023-07-24T04:49:23;5.83;;;2.80;;
5937;SDS011;2994;51.220;4.412;2023-07-24T04:51:49;3.00;;;2.47;;
5937;SDS011;2994;51.220;4.412;2023-07-24T04:54:15;4.00;;;2.93;;
5937;SDS011;2994;51.220;4.412;2023-07-24T04:56:41;3.10;;;2.57;;
5937;SDS011;2994;51.220;4.412;2023-07-24T04:59:06;3.77;;;2.90;;
5937;SDS011;2994;51.220;4.412;2023-07-24T05:01:32;4.90;;;2.80;;
5937;SDS011;2994;51.220;4.412;2023-07-24T05:03:57;6.10;;;3.60;;
5937;SDS011;2994;51.220;4.412;2023-07-24T05:06:22;3.33;;;2.63;;
5937;SDS011;2994;51.220;4.412;2023-07-24T05:08:48;2.97;;;2.50;;
5937;SDS011;2994;51.220;4.412;2023-07-24T05:11:14;3.00;;;2.40;;
5937;SDS011;2994;51.220;4.412;2023-07-24T05:13:39;4.00;;;3.03;;
5937;SDS011;2994;51.220;4.412;2023-07-24T05:16:07;2.90;;;2.60;;
5937;SDS011;2994;51.220;4.412;2023-07-24T05:18:33;4.20;;;3.13;;
5937;SDS011;2994;51.220;4.412;2023-07-24T05:20:58;3.47;;;3.17;;
5937;SDS011;2994;51.220;4.412;2023-07-24T05:23:24;3.30;;;2.83;;
5937;SDS011;2994;51.220;4.412;2023-07-24T05:25:56;2.97;;;2.63;;
5937;SDS011;2994;51.220;4.412;2023-07-24T05:28:28;3.23;;;2.50;;
5937;SDS011;2994;51.220;4.412;2023-07-24T05:30:54;2.30;;;2.10;;
5937;SDS011;2994;51.220;4.412;2023-07-24T05:33:20;4.47;;;2.43;;
5937;SDS011;2994;51.220;4.412;2023-07-24T05:35:46;2.90;;;2.50;;
5937;SDS011;2994;51.220;4.412;2023-07-24T05:38:11;3.60;;;2.67;;
5937;SDS011;2994;51.220;4.412;2023-07-24T05:40:36;3.60;;;2.33;;
5937;SDS011;2994;51.220;4.412;2023-07-24T05:43:02;3.67;;;2.67;;
5937;SDS011;2994;51.220;4.412;2023-07-24T05:45:29;3.70;;;2.53;;
5937;SDS011;2994;51.220;4.412;2023-07-24T05:47:54;3.50;;;2.63;;
5937;SDS011;2994;51.220;4.412;2023-07-24T05:50:19;3.17;;;2.87;;
5937;SDS011;2994;51.220;4.412;2023-07-24T05:52:45;3.63;;;3.00;;
5937;SDS011;2994;51.220;4.412;2023-07-24T05:55:10;4.03;;;3.00;;
5937;SDS011;2994;51.220;4.412;2023-07-24T05:57:36;4.13;;;2.53;;
5937;SDS011;2994;51.220;4.412;2023-07-24T06:00:03;3.20;;;2.50;;
5937;SDS011;2994;51.220;4.412;2023-07-24T06:02:29;5.93;;;2.93;;
5937;SDS011;2994;51.220;4.412;2023-07-24T06:04:55;3.53;;;2.73;;
5937;SDS011;2994;51.220;4.412;2023-07-24T06:07:20;7.33;;;3.73;;
5937;SDS011;2994;51.220;4.412;2023-07-24T06:09:45;3.67;;;2.63;;
5937;SDS011;2994;51.220;4.412;2023-07-24T06:12:11;3.27;;;2.90;;
5937;SDS011;2994;51.220;4.412;2023-07-24T06:14:36;3.87;;;3.47;;
5937;SDS011;2994;51.220;4.412;2023-07-24T06:17:02;4.20;;;3.00;;
5937;SDS011;2994;51.220;4.412;2023-07-24T06:19:27;3.60;;;2.90;;
5937;SDS011;2994;51.220;4.412;2023-07-24T06:21:53;5.67;;;3.47;;
5937;SDS011;2994;51.220;4.412;2023-07-24T06:24:18;4.13;;;3.20;;
5937;SDS011;2994;51.220;4.412;2023-07-24T06:26:44;3.07;;;2.70;;
5937;SDS011;2994;51.220;4.412;2023-07-24T06:29:09;3.97;;;2.60;;
5937;SDS011;2994;51.220;4.412;2023-07-24T06:31:34;3.13;;;2.70;;
5937;SDS011;2994;51.220;4.412;2023-07-24T06:34:00;5.00;;;4.40;;
5937;SDS011;2994;51.220;4.412;2023-07-24T06:36:25;7.80;;;3.03;;
5937;SDS011;2994;51.220;4.412;2023-07-24T06:38:51;4.67;;;2.60;;
5937;SDS011;2994;51.220;4.412;2023-07-24T06:41:16;3.47;;;2.73;;
5937;SDS011;2994;51.220;4.412;2023-07-24T06:43:42;4.77;;;3.30;;
5937;SDS011;2994;51.220;4.412;2023-07-24T06:46:07;3.60;;;3.30;;
5937;SDS011;2994;51.220;4.412;2023-07-24T06:48:33;4.17;;;3.77;;
5937;SDS011;2994;51.220;4.412;2023-07-24T06:50:58;4.27;;;3.37;;
5937;SDS011;2994;51.220;4.412;2023-07-24T06:53:24;3.90;;;3.30;;
5937;SDS011;2994;51.220;4.412;2023-07-24T06:55:49;3.60;;;3.10;;
5937;SDS011;2994;51.220;4.412;2023-07-24T06:58:15;3.77;;;3.30;;
5937;SDS011;2994;51.220;4.412;2023-07-24T07:00:40;3.90;;;3.00;;
5937;SDS011;2994;51.220;4.412;2023-07-24T07:03:05;4.20;;;3.20;;
5937;SDS011;2994;51.220;4.412;2023-07-24T07:05:31;4.27;;;3.33;;
5937;SDS011;2994;51.220;4.412;2023-07-24T07:07:57;4.73;;;3.60;;
5937;SDS011;2994;51.220;4.412;2023-07-24T07:10:22;3.90;;;3.23;;
5937;SDS011;2994;51.220;4.412;2023-07-24T07:12:48;5.17;;;3.50;;
5937;SDS011;2994;51.220;4.412;2023-07-24T07:15:13;6.50;;;3.50;;
5937;SDS011;2994;51.220;4.412;2023-07-24T07:17:39;5.67;;;4.33;;
5937;SDS011;2994;51.220;4.412;2023-07-24T07:20:05;5.50;;;4.40;;
5937;SDS011;2994;51.220;4.412;2023-07-24T07:22:31;5.97;;;4.13;;
5937;SDS011;2994;51.220;4.412;2023-07-24T07:24:56;6.63;;;4.23;;
5937;SDS011;2994;51.220;4.412;2023-07-24T07:27:22;7.20;;;4.10;;
5937;SDS011;2994;51.220;4.412;2023-07-24T07:29:47;4.50;;;4.10;;
5937;SDS011;2994;51.220;4.412;2023-07-24T07:32:13;5.10;;;4.60;;
5937;SDS011;2994;51.220;4.412;2023-07-24T07:34:38;3.73;;;3.43;;
5937;SDS011;2994;51.220;4.412;2023-07-24T07:37:04;6.23;;;4.60;;
5937;SDS011;2994;51.220;4.412;2023-07-24T07:39:30;4.30;;;3.90;;
5937;SDS011;2994;51.220;4.412;2023-07-24T07:41:56;5.43;;;4.27;;
5937;SDS011;2994;51.220;4.412;2023-07-24T07:44:21;4.13;;;3.73;;
5937;SDS011;2994;51.220;4.412;2023-07-24T07:46:47;5.10;;;4.60;;
5937;SDS011;2994;51.220;4.412;2023-07-24T07:49:13;4.93;;;4.00;;
5937;SDS011;2994;51.220;4.412;2023-07-24T07:51:38;4.37;;;3.97;;
5937;SDS011;2994;51.220;4.412;2023-07-24T07:54:04;4.27;;;3.90;;
5937;SDS011;2994;51.220;4.412;2023-07-24T07:56:29;3.80;;;3.27;;
5937;SDS011;2994;51.220;4.412;2023-07-24T07:58:54;4.37;;;3.73;;
5937;SDS011;2994;51.220;4.412;2023-07-24T08:01:20;3.97;;;3.23;;
5937;SDS011;2994;51.220;4.412;2023-07-24T08:03:45;5.00;;;3.67;;
5937;SDS011;2994;51.220;4.412;2023-07-24T08:06:11;4.30;;;3.37;;
5937;SDS011;2994;51.220;4.412;2023-07-24T08:08:37;4.07;;;3.60;;
5937;SDS011;2994;51.220;4.412;2023-07-24T08:11:06;3.60;;;3.30;;
5937;SDS011;2994;51.220;4.412;2023-07-24T08:13:32;3.83;;;3.43;;
5937;SDS011;2994;51.220;4.412;2023-07-24T08:15:58;3.87;;;3.57;;
5937;SDS011;2994;51.220;4.412;2023-07-24T08:18:24;4.33;;;3.70;;
5937;SDS011;2994;51.220;4.412;2023-07-24T08:20:50;5.37;;;4.10;;
5937;SDS011;2994;51.220;4.412;2023-07-24T08:23:16;4.80;;;4.30;;
5937;SDS011;2994;51.220;4.412;2023-07-24T08:25:50;5.53;;;4.00;;
5937;SDS011;2994;51.220;4.412;2023-07-24T08:28:19;5.93;;;3.77;;
5937;SDS011;2994;51.220;4.412;2023-07-24T08:30:45;4.10;;;3.40;;
5937;SDS011;2994;51.220;4.412;2023-07-24T08:33:12;4.40;;;4.00;;
5937;SDS011;2994;51.220;4.412;2023-07-24T08:35:37;4.53;;;4.13;;
5937;SDS011;2994;51.220;4.412;2023-07-24T08:38:03;4.20;;;3.80;;
5937;SDS011;2994;51.220;4.412;2023-07-24T08:40:28;4.20;;;3.80;;
5937;SDS011;2994;51.220;4.412;2023-07-24T08:42:54;4.77;;;4.30;;
5937;SDS011;2994;51.220;4.412;2023-07-24T08:45:19;4.87;;;4.17;;
5937;SDS011;2994;51.220;4.412;2023-07-24T08:47:45;3.63;;;3.23;;
5937;SDS011;2994;51.220;4.412;2023-07-24T08:50:11;4.00;;;3.60;;
5937;SDS011;2994;51.220;4.412;2023-07-24T08:52:38;4.30;;;3.50;;
5937;SDS011;2994;51.220;4.412;2023-07-24T08:55:05;3.20;;;2.87;;
5937;SDS011;2994;51.220;4.412;2023-07-24T08:57:31;3.97;;;3.30;;
5937;SDS011;2994;51.220;4.412;2023-07-24T08:59:56;4.10;;;3.70;;
5937;SDS011;2994;51.220;4.412;2023-07-24T09:02:23;4.30;;;3.77;;
5937;SDS011;2994;51.220;4.412;2023-07-24T09:04:49;3.73;;;3.40;;
5937;SDS011;2994;51.220;4.412;2023-07-24T09:07:14;3.73;;;3.43;;
5937;SDS011;2994;51.220;4.412;2023-07-24T09:09:39;6.10;;;5.20;;
5937;SDS011;2994;51.220;4.412;2023-07-24T09:12:05;5.27;;;4.20;;
5937;SDS011;2994;51.220;4.412;2023-07-24T09:14:31;4.97;;;4.23;;
5937;SDS011;2994;51.220;4.412;2023-07-24T09:17:06;4.23;;;3.80;;
5937;SDS011;2994;51.220;4.412;2023-07-24T09:19:33;4.87;;;3.80;;
5937;SDS011;2994;51.220;4.412;2023-07-24T09:22:11;4.30;;;3.87;;
5937;SDS011;2994;51.220;4.412;2023-07-24T09:24:48;4.23;;;3.83;;
5937;SDS011;2994;51.220;4.412;2023-07-24T09:27:17;5.10;;;4.60;;
5937;SDS011;2994;51.220;4.412;2023-07-24T09:29:43;4.03;;;3.63;;
5937;SDS011;2994;51.220;4.412;2023-07-24T09:32:18;7.00;;;4.10;;
5937;SDS011;2994;51.220;4.412;2023-07-24T09:34:46;4.80;;;4.40;;
5937;SDS011;2994;51.220;4.412;2023-07-24T09:37:22;4.93;;;4.20;;
5937;SDS011;2994;51.220;4.412;2023-07-24T09:39:51;4.87;;;4.33;;
5937;SDS011;2994;51.220;4.412;2023-07-24T09:42:18;4.33;;;3.93;;
5937;SDS011;2994;51.220;4.412;2023-07-24T09:44:53;6.00;;;3.90;;
5937;SDS011;2994;51.220;4.412;2023-07-24T09:47:18;6.47;;;4.73;;
5937;SDS011;2994;51.220;4.412;2023-07-24T09:49:43;4.43;;;4.03;;
5937;SDS011;2994;51.220;4.412;2023-07-24T09:52:09;5.40;;;4.20;;
5937;SDS011;2994;51.220;4.412;2023-07-24T09:54:37;5.70;;;4.50;;
5937;SDS011;2994;51.220;4.412;2023-07-24T09:57:11;3.90;;;3.50;;
5937;SDS011;2994;51.220;4.412;2023-07-24T09:59:38;9.60;;;5.30;;
5937;SDS011;2994;51.220;4.412;2023-07-24T10:02:05;5.20;;;4.47;;
5937;SDS011;2994;51.220;4.412;2023-07-24T10:04:35;5.40;;;4.30;;
5937;SDS011;2994;51.220;4.412;2023-07-24T10:07:02;5.30;;;4.33;;
5937;SDS011;2994;51.220;4.412;2023-07-24T10:09:29;5.33;;;4.40;;
5937;SDS011;2994;51.220;4.412;2023-07-24T10:11:56;5.53;;;4.53;;
5937;SDS011;2994;51.220;4.412;2023-07-24T10:14:22;5.53;;;5.00;;
5937;SDS011;2994;51.220;4.412;2023-07-24T10:16:48;4.43;;;3.50;;
5937;SDS011;2994;51.220;4.412;2023-07-24T10:19:15;5.37;;;4.87;;
5937;SDS011;2994;51.220;4.412;2023-07-24T10:21:45;5.33;;;4.83;;
5937;SDS011;2994;51.220;4.412;2023-07-24T10:24:12;5.50;;;5.00;;
5937;SDS011;2994;51.220;4.412;2023-07-24T10:26:37;4.63;;;4.23;;
5937;SDS011;2994;51.220;4.412;2023-07-24T10:29:03;6.10;;;5.50;;
5937;SDS011;2994;51.220;4.412;2023-07-24T10:31:28;5.70;;;5.20;;
5937;SDS011;2994;51.220;4.412;2023-07-24T10:33:55;5.00;;;4.50;;
5937;SDS011;2994;51.220;4.412;2023-07-24T10:36:32;5.30;;;3.87;;
5937;SDS011;2994;51.220;4.412;2023-07-24T10:38:59;5.03;;;4.53;;
5937;SDS011;2994;51.220;4.412;2023-07-24T10:41:35;5.13;;;4.63;;
5937;SDS011;2994;51.220;4.412;2023-07-24T10:44:02;4.77;;;4.37;;
5937;SDS011;2994;51.220;4.412;2023-07-24T10:46:40;5.23;;;4.70;;
5937;SDS011;2994;51.220;4.412;2023-07-24T10:49:09;4.97;;;4.47;;
5937;SDS011;2994;51.220;4.412;2023-07-24T10:51:35;4.30;;;3.87;;
5937;SDS011;2994;51.220;4.412;2023-07-24T10:54:03;5.70;;;4.07;;
5937;SDS011;2994;51.220;4.412;2023-07-24T10:56:29;4.43;;;3.70;;
5937;SDS011;2994;51.220;4.412;2023-07-24T10:58:55;4.97;;;4.23;;
5937;SDS011;2994;51.220;4.412;2023-07-24T11:01:21;4.80;;;4.23;;
5937;SDS011;2994;51.220;4.412;2023-07-24T11:03:46;5.40;;;4.90;;
5937;SDS011;2994;51.220;4.412;2023-07-24T11:06:14;4.80;;;4.20;;
5937;SDS011;2994;51.220;4.412;2023-07-24T11:08:41;4.13;;;3.73;;
5937;SDS011;2994;51.220;4.412;2023-07-24T11:11:07;4.43;;;3.87;;
5937;SDS011;2994;51.220;4.412;2023-07-24T11:13:33;4.17;;;3.63;;
5937;SDS011;2994;51.220;4.412;2023-07-24T11:16:05;4.43;;;3.60;;
5937;SDS011;2994;51.220;4.412;2023-07-24T11:18:31;5.10;;;3.93;;
5937;SDS011;2994;51.220;4.412;2023-07-24T11:20:57;4.57;;;4.23;;
5937;SDS011;2994;51.220;4.412;2023-07-24T11:23:23;5.37;;;4.63;;
5937;SDS011;2994;51.220;4.412;2023-07-24T11:25:52;5.73;;;5.03;;
5937;SDS011;2994;51.220;4.412;2023-07-24T11:28:19;6.10;;;4.63;;
5937;SDS011;2994;51.220;4.412;2023-07-24T11:30:45;5.03;;;4.53;;
5937;SDS011;2994;51.220;4.412;2023-07-24T11:33:11;6.73;;;4.30;;
5937;SDS011;2994;51.220;4.412;2023-07-24T11:35:39;5.50;;;4.30;;
5937;SDS011;2994;51.220;4.412;2023-07-24T11:38:05;4.73;;;4.33;;
5937;SDS011;2994;51.220;4.412;2023-07-24T11:40:35;4.90;;;4.50;;
5937;SDS011;2994;51.220;4.412;2023-07-24T11:43:03;5.53;;;5.00;;
5937;SDS011;2994;51.220;4.412;2023-07-24T11:45:29;7.10;;;5.40;;
5937;SDS011;2994;51.220;4.412;2023-07-24T11:47:55;6.40;;;5.50;;
5937;SDS011;2994;51.220;4.412;2023-07-24T11:50:21;5.73;;;5.17;;
5937;SDS011;2994;51.220;4.412;2023-07-24T11:52:48;5.83;;;5.23;;
5937;SDS011;2994;51.220;4.412;2023-07-24T11:55:17;5.27;;;4.77;;
5937;SDS011;2994;51.220;4.412;2023-07-24T11:57:43;5.87;;;5.27;;
5937;SDS011;2994;51.220;4.412;2023-07-24T12:00:21;7.20;;;5.27;;
5937;SDS011;2994;51.220;4.412;2023-07-24T12:02:47;6.63;;;5.60;;
5937;SDS011;2994;51.220;4.412;2023-07-24T12:05:13;6.30;;;4.53;;
5937;SDS011;2994;51.220;4.412;2023-07-24T12:07:39;8.80;;;6.33;;
5937;SDS011;2994;51.220;4.412;2023-07-24T12:10:05;6.63;;;6.00;;
5937;SDS011;2994;51.220;4.412;2023-07-24T12:12:45;7.77;;;5.50;;
5937;SDS011;2994;51.220;4.412;2023-07-24T12:15:12;7.77;;;5.73;;
5937;SDS011;2994;51.220;4.412;2023-07-24T12:17:39;6.90;;;6.20;;
5937;SDS011;2994;51.220;4.412;2023-07-24T12:20:05;7.63;;;6.80;;
5937;SDS011;2994;51.220;4.412;2023-07-24T12:22:33;7.80;;;5.57;;
5937;SDS011;2994;51.220;4.412;2023-07-24T12:24:59;7.43;;;6.60;;
5937;SDS011;2994;51.220;4.412;2023-07-24T12:27:25;8.10;;;7.43;;
5937;SDS011;2994;51.220;4.412;2023-07-24T12:29:51;8.60;;;7.70;;
5937;SDS011;2994;51.220;4.412;2023-07-24T12:32:17;8.80;;;8.07;;
5937;SDS011;2994;51.220;4.412;2023-07-24T12:34:43;9.53;;;8.60;;
5937;SDS011;2994;51.220;4.412;2023-07-24T12:37:09;9.80;;;8.80;;
5937;SDS011;2994;51.220;4.412;2023-07-24T12:39:34;7.03;;;6.40;;
5937;SDS011;2994;51.220;4.412;2023-07-24T12:42:00;8.03;;;7.23;;
5937;SDS011;2994;51.220;4.412;2023-07-24T12:44:25;8.50;;;7.60;;
5937;SDS011;2994;51.220;4.412;2023-07-24T12:46:51;7.40;;;6.70;;
5937;SDS011;2994;51.220;4.412;2023-07-24T12:49:17;7.80;;;6.90;;
5937;SDS011;2994;51.220;4.412;2023-07-24T12:51:42;6.87;;;6.00;;
5937;SDS011;2994;51.220;4.412;2023-07-24T12:54:07;5.67;;;5.07;;
5937;SDS011;2994;51.220;4.412;2023-07-24T12:56:33;6.33;;;5.73;;
5937;SDS011;2994;51.220;4.412;2023-07-24T12:58:58;5.80;;;5.30;;
5937;SDS011;2994;51.220;4.412;2023-07-24T13:01:24;5.93;;;5.43;;
5937;SDS011;2994;51.220;4.412;2023-07-24T13:03:49;6.60;;;5.10;;
5937;SDS011;2994;51.220;4.412;2023-07-24T13:06:15;6.10;;;5.50;;
5937;SDS011;2994;51.220;4.412;2023-07-24T13:08:40;6.40;;;5.17;;
5937;SDS011;2994;51.220;4.412;2023-07-24T13:11:06;7.63;;;5.70;;
5937;SDS011;2994;51.220;4.412;2023-07-24T13:13:31;6.63;;;5.93;;
5937;SDS011;2994;51.220;4.412;2023-07-24T13:15:57;7.33;;;6.50;;
5937;SDS011;2994;51.220;4.412;2023-07-24T13:18:22;7.80;;;7.03;;
5937;SDS011;2994;51.220;4.412;2023-07-24T13:20:48;10.77;;;7.40;;
5937;SDS011;2994;51.220;4.412;2023-07-24T13:23:13;8.03;;;6.87;;
5937;SDS011;2994;51.220;4.412;2023-07-24T13:25:38;7.80;;;7.17;;
5937;SDS011;2994;51.220;4.412;2023-07-24T13:28:04;8.80;;;7.90;;
5937;SDS011;2994;51.220;4.412;2023-07-24T13:30:29;6.73;;;6.13;;
5937;SDS011;2994;51.220;4.412;2023-07-24T13:32:55;7.40;;;6.80;;
5937;SDS011;2994;51.220;4.412;2023-07-24T13:35:20;8.80;;;6.90;;
5937;SDS011;2994;51.220;4.412;2023-07-24T13:37:45;7.80;;;6.90;;
5937;SDS011;2994;51.220;4.412;2023-07-24T13:40:11;8.13;;;6.70;;
5937;SDS011;2994;51.220;4.412;2023-07-24T13:42:36;7.07;;;6.47;;
5937;SDS011;2994;51.220;4.412;2023-07-24T13:45:02;8.53;;;7.10;;
5937;SDS011;2994;51.220;4.412;2023-07-24T13:47:28;9.17;;;7.87;;
5937;SDS011;2994;51.220;4.412;2023-07-24T13:49:53;7.80;;;7.00;;
5937;SDS011;2994;51.220;4.412;2023-07-24T13:52:18;10.67;;;8.00;;
5937;SDS011;2994;51.220;4.412;2023-07-24T13:54:44;8.53;;;7.30;;
5937;SDS011;2994;51.220;4.412;2023-07-24T13:57:09;11.77;;;9.07;;
5937;SDS011;2994;51.220;4.412;2023-07-24T13:59:35;8.73;;;7.67;;
5937;SDS011;2994;51.220;4.412;2023-07-24T14:02:03;8.70;;;8.00;;
5937;SDS011;2994;51.220;4.412;2023-07-24T14:04:28;8.90;;;7.90;;
5937;SDS011;2994;51.220;4.412;2023-07-24T14:06:54;11.53;;;9.13;;
5937;SDS011;2994;51.220;4.412;2023-07-24T14:09:19;12.80;;;10.77;;
5937;SDS011;2994;51.220;4.412;2023-07-24T14:11:45;12.13;;;10.07;;
5937;SDS011;2994;51.220;4.412;2023-07-24T14:14:10;11.20;;;10.10;;
5937;SDS011;2994;51.220;4.412;2023-07-24T14:16:36;10.17;;;9.17;;
5937;SDS011;2994;51.220;4.412;2023-07-24T14:19:01;9.00;;;8.10;;
5937;SDS011;2994;51.220;4.412;2023-07-24T14:21:27;9.80;;;8.00;;
5937;SDS011;2994;51.220;4.412;2023-07-24T14:23:52;10.10;;;9.30;;
5937;SDS011;2994;51.220;4.412;2023-07-24T14:26:18;9.47;;;8.57;;
5937;SDS011;2994;51.220;4.412;2023-07-24T14:28:43;8.37;;;7.57;;
5937;SDS011;2994;51.220;4.412;2023-07-24T14:31:08;8.13;;;7.33;;
5937;SDS011;2994;51.220;4.412;2023-07-24T14:33:34;8.10;;;6.90;;
5937;SDS011;2994;51.220;4.412;2023-07-24T14:35:59;8.70;;;7.80;;
5937;SDS011;2994;51.220;4.412;2023-07-24T14:38:25;8.73;;;7.90;;
5937;SDS011;2994;51.220;4.412;2023-07-24T14:40:50;7.10;;;6.50;;
5937;SDS011;2994;51.220;4.412;2023-07-24T14:43:15;7.33;;;6.57;;
5937;SDS011;2994;51.220;4.412;2023-07-24T14:45:41;7.53;;;6.60;;
5937;SDS011;2994;51.220;4.412;2023-07-24T14:48:06;11.20;;;8.43;;
5937;SDS011;2994;51.220;4.412;2023-07-24T14:50:37;7.60;;;6.33;;
5937;SDS011;2994;51.220;4.412;2023-07-24T14:53:03;7.27;;;6.30;;
5937;SDS011;2994;51.220;4.412;2023-07-24T14:55:28;6.67;;;6.07;;
5937;SDS011;2994;51.220;4.412;2023-07-24T14:57:54;13.77;;;8.00;;
5937;SDS011;2994;51.220;4.412;2023-07-24T15:00:19;7.83;;;7.03;;
5937;SDS011;2994;51.220;4.412;2023-07-24T15:02:45;8.23;;;7.33;;
5937;SDS011;2994;51.220;4.412;2023-07-24T15:05:10;7.53;;;6.80;;
5937;SDS011;2994;51.220;4.412;2023-07-24T15:07:36;8.00;;;7.30;;
5937;SDS011;2994;51.220;4.412;2023-07-24T15:10:01;8.87;;;7.80;;
5937;SDS011;2994;51.220;4.412;2023-07-24T15:12:26;8.03;;;7.30;;
5937;SDS011;2994;51.220;4.412;2023-07-24T15:14:52;11.67;;;9.73;;